sensor_id;sensor_type;location;lat;lon;timestamp;temperature;humidity
19389;DHT22;9830;41.876;23.474;2023-02-11T00:00:58;-8.40;99.90
19389;DHT22;9830;41.876;23.474;2023-02-11T00:03:24;-8.40;99.90
19389;DHT22;9830;41.876;23.474;2023-02-11T00:06:00;-8.40;99.90
19389;DHT22;9830;41.876;23.474;2023-02-11T00:08:26;-8.40;99.90
19389;DHT22;9830;41.876;23.474;2023-02-11T00:10:54;-8.40;99.90
19389;DHT22;9830;41.876;23.474;2023-02-11T00:13:20;-8.40;99.90
19389;DHT22;9830;41.876;23.474;2023-02-11T00:15:46;-8.40;99.90
19389;DHT22;9830;41.876;23.474;2023-02-11T00:18:12;-8.30;99.90
19389;DHT22;9830;41.876;23.474;2023-02-11T00:20:38;-8.30;99.90
19389;DHT22;9830;41.876;23.474;2023-02-11T00:23:04;-8.40;99.90
19389;DHT22;9830;41.876;23.474;2023-02-11T00:25:30;-8.40;99.90
19389;DHT22;9830;41.876;23.474;2023-02-11T00:27:55;-8.50;99.90
19389;DHT22;9830;41.876;23.474;2023-02-11T00:30:21;-8.40;99.90
19389;DHT22;9830;41.876;23.474;2023-02-11T00:32:47;-8.50;99.90
19389;DHT22;9830;41.876;23.474;2023-02-11T00:35:13;-8.50;99.90
19389;DHT22;9830;41.876;23.474;2023-02-11T00:37:38;-8.60;99.90
19389;DHT22;9830;41.876;23.474;2023-02-11T00:40:04;-8.60;99.90
19389;DHT22;9830;41.876;23.474;2023-02-11T00:42:30;-8.50;99.90
19389;DHT22;9830;41.876;23.474;2023-02-11T00:44:56;-8.60;99.90
19389;DHT22;9830;41.876;23.474;2023-02-11T00:47:21;-8.60;99.90
19389;DHT22;9830;41.876;23.474;2023-02-11T00:49:47;-8.60;99.90
19389;DHT22;9830;41.876;23.474;2023-02-11T00:52:13;-8.60;99.90
19389;DHT22;9830;41.876;23.474;2023-02-11T00:54:39;-8.70;99.90
19389;DHT22;9830;41.876;23.474;2023-02-11T00:57:04;-8.70;99.90
19389;DHT22;9830;41.876;23.474;2023-02-11T00:59:30;-8.70;99.90
19389;DHT22;9830;41.876;23.474;2023-02-11T01:01:56;-8.80;99.90
19389;DHT22;9830;41.876;23.474;2023-02-11T01:04:22;-8.90;99.90
19389;DHT22;9830;41.876;23.474;2023-02-11T01:06:47;-8.80;99.90
19389;DHT22;9830;41.876;23.474;2023-02-11T01:09:13;-8.80;99.90
19389;DHT22;9830;41.876;23.474;2023-02-11T01:11:39;-8.80;99.90
19389;DHT22;9830;41.876;23.474;2023-02-11T01:14:04;-8.90;99.90
19389;DHT22;9830;41.876;23.474;2023-02-11T01:16:30;-8.90;99.90
19389;DHT22;9830;41.876;23.474;2023-02-11T01:18:56;-8.90;99.90
19389;DHT22;9830;41.876;23.474;2023-02-11T01:21:23;-8.90;99.90
19389;DHT22;9830;41.876;23.474;2023-02-11T01:23:49;-8.80;99.90
19389;DHT22;9830;41.876;23.474;2023-02-11T01:26:15;-8.80;99.90
19389;DHT22;9830;41.876;23.474;2023-02-11T01:28:41;-8.80;99.90
19389;DHT22;9830;41.876;23.474;2023-02-11T01:31:07;-8.80;99.90
19389;DHT22;9830;41.876;23.474;2023-02-11T01:33:33;-8.80;99.90
19389;DHT22;9830;41.876;23.474;2023-02-11T01:36:03;-8.80;99.90
19389;DHT22;9830;41.876;23.474;2023-02-11T01:38:29;-8.80;99.90
19389;DHT22;9830;41.876;23.474;2023-02-11T01:40:59;-8.80;99.90
19389;DHT22;9830;41.876;23.474;2023-02-11T01:43:26;-8.80;99.90
19389;DHT22;9830;41.876;23.474;2023-02-11T01:46:01;-8.80;99.90
19389;DHT22;9830;41.876;23.474;2023-02-11T01:48:33;-8.90;99.90
19389;DHT22;9830;41.876;23.474;2023-02-11T01:51:23;-8.90;99.90
19389;DHT22;9830;41.876;23.474;2023-02-11T01:53:50;-8.90;99.90
19389;DHT22;9830;41.876;23.474;2023-02-11T01:56:38;-8.90;99.90
19389;DHT22;9830;41.876;23.474;2023-02-11T01:59:35;-8.90;99.90
19389;DHT22;9830;41.876;23.474;2023-02-11T02:02:07;-8.90;99.90
19389;DHT22;9830;41.876;23.474;2023-02-11T02:04:43;-8.90;99.90
19389;DHT22;9830;41.876;23.474;2023-02-11T02:07:16;-8.90;99.90
19389;DHT22;9830;41.876;23.474;2023-02-11T02:09:48;-8.90;99.90
19389;DHT22;9830;41.876;23.474;2023-02-11T02:12:16;-8.90;99.90
19389;DHT22;9830;41.876;23.474;2023-02-11T02:14:42;-9.00;99.90
19389;DHT22;9830;41.876;23.474;2023-02-11T02:17:27;-8.90;99.90
19389;DHT22;9830;41.876;23.474;2023-02-11T02:28:20;-9.00;99.90
19389;DHT22;9830;41.876;23.474;2023-02-11T02:33:32;-9.10;99.90
19389;DHT22;9830;41.876;23.474;2023-02-11T02:37:07;-9.10;99.90
19389;DHT22;9830;41.876;23.474;2023-02-11T02:39:11;-9.10;99.90
19389;DHT22;9830;41.876;23.474;2023-02-11T02:41:39;-9.20;99.90
19389;DHT22;9830;41.876;23.474;2023-02-11T02:44:06;-9.30;99.90
19389;DHT22;9830;41.876;23.474;2023-02-11T02:46:34;-9.30;99.90
19389;DHT22;9830;41.876;23.474;2023-02-11T02:49:00;-9.40;99.90
19389;DHT22;9830;41.876;23.474;2023-02-11T03:02:35;-9.50;99.90
19389;DHT22;9830;41.876;23.474;2023-02-11T03:08:22;-9.60;99.90
19389;DHT22;9830;41.876;23.474;2023-02-11T03:10:51;-9.70;99.90
19389;DHT22;9830;41.876;23.474;2023-02-11T03:13:19;-9.70;99.90
19389;DHT22;9830;41.876;23.474;2023-02-11T03:15:49;-9.70;99.90
19389;DHT22;9830;41.876;23.474;2023-02-11T03:18:18;-9.70;99.90
19389;DHT22;9830;41.876;23.474;2023-02-11T03:20:48;-9.70;99.90
19389;DHT22;9830;41.876;23.474;2023-02-11T03:23:40;-9.70;99.90
19389;DHT22;9830;41.876;23.474;2023-02-11T03:26:13;-9.80;99.90
19389;DHT22;9830;41.876;23.474;2023-02-11T03:31:36;-9.70;99.90
19389;DHT22;9830;41.876;23.474;2023-02-11T03:39:53;-9.80;99.90
19389;DHT22;9830;41.876;23.474;2023-02-11T03:42:22;-9.80;99.90
19389;DHT22;9830;41.876;23.474;2023-02-11T03:44:52;-9.90;99.90
19389;DHT22;9830;41.876;23.474;2023-02-11T03:47:25;-9.90;99.90
19389;DHT22;9830;41.876;23.474;2023-02-11T03:49:53;-9.90;99.90
19389;DHT22;9830;41.876;23.474;2023-02-11T03:52:21;-10.00;99.90
19389;DHT22;9830;41.876;23.474;2023-02-11T03:54:52;-9.90;99.90
19389;DHT22;9830;41.876;23.474;2023-02-11T03:57:20;-9.90;99.90
19389;DHT22;9830;41.876;23.474;2023-02-11T03:59:54;-9.80;99.90
19389;DHT22;9830;41.876;23.474;2023-02-11T04:02:32;-9.80;99.90
19389;DHT22;9830;41.876;23.474;2023-02-11T04:04:58;-9.80;99.90
19389;DHT22;9830;41.876;23.474;2023-02-11T04:07:24;-9.80;99.90
19389;DHT22;9830;41.876;23.474;2023-02-11T04:09:50;-9.80;99.90
19389;DHT22;9830;41.876;23.474;2023-02-11T04:12:16;-9.80;99.90
19389;DHT22;9830;41.876;23.474;2023-02-11T04:14:42;-9.90;99.90
19389;DHT22;9830;41.876;23.474;2023-02-11T04:17:08;-9.90;99.90
19389;DHT22;9830;41.876;23.474;2023-02-11T04:19:33;-9.90;99.90
19389;DHT22;9830;41.876;23.474;2023-02-11T04:21:59;-9.90;99.90
19389;DHT22;9830;41.876;23.474;2023-02-11T04:24:25;-10.00;99.90
19389;DHT22;9830;41.876;23.474;2023-02-11T04:26:50;-10.10;99.90
19389;DHT22;9830;41.876;23.474;2023-02-11T04:29:17;-10.10;99.90
19389;DHT22;9830;41.876;23.474;2023-02-11T04:31:43;-10.20;99.90
19389;DHT22;9830;41.876;23.474;2023-02-11T04:34:09;-10.20;99.90
19389;DHT22;9830;41.876;23.474;2023-02-11T04:36:34;-10.20;99.90
19389;DHT22;9830;41.876;23.474;2023-02-11T04:39:00;-10.20;99.90
19389;DHT22;9830;41.876;23.474;2023-02-11T04:41:26;-10.20;99.90
19389;DHT22;9830;41.876;23.474;2023-02-11T04:43:51;-10.20;99.90
19389;DHT22;9830;41.876;23.474;2023-02-11T04:46:17;-10.20;99.90
19389;DHT22;9830;41.876;23.474;2023-02-11T04:48:43;-10.20;99.90
19389;DHT22;9830;41.876;23.474;2023-02-11T04:51:09;-10.20;99.90
19389;DHT22;9830;41.876;23.474;2023-02-11T04:53:34;-10.20;99.90
19389;DHT22;9830;41.876;23.474;2023-02-11T04:56:00;-10.30;99.90
19389;DHT22;9830;41.876;23.474;2023-02-11T04:58:26;-10.30;99.90
19389;DHT22;9830;41.876;23.474;2023-02-11T05:00:51;-10.30;99.90
19389;DHT22;9830;41.876;23.474;2023-02-11T05:03:17;-10.30;99.90
19389;DHT22;9830;41.876;23.474;2023-02-11T05:05:43;-10.30;99.90
19389;DHT22;9830;41.876;23.474;2023-02-11T05:08:10;-10.40;99.90
19389;DHT22;9830;41.876;23.474;2023-02-11T05:10:35;-10.40;99.90
19389;DHT22;9830;41.876;23.474;2023-02-11T05:13:01;-10.50;99.90
19389;DHT22;9830;41.876;23.474;2023-02-11T05:15:28;-10.50;99.90
19389;DHT22;9830;41.876;23.474;2023-02-11T05:17:54;-10.50;99.90
19389;DHT22;9830;41.876;23.474;2023-02-11T05:20:20;-10.50;99.90
19389;DHT22;9830;41.876;23.474;2023-02-11T05:22:46;-10.50;99.90
19389;DHT22;9830;41.876;23.474;2023-02-11T05:25:12;-10.50;99.90
19389;DHT22;9830;41.876;23.474;2023-02-11T05:27:37;-10.60;99.90
19389;DHT22;9830;41.876;23.474;2023-02-11T05:30:05;-10.60;99.90
19389;DHT22;9830;41.876;23.474;2023-02-11T05:32:30;-10.60;99.90
19389;DHT22;9830;41.876;23.474;2023-02-11T05:34:56;-10.50;99.90
19389;DHT22;9830;41.876;23.474;2023-02-11T05:37:22;-10.50;99.90
19389;DHT22;9830;41.876;23.474;2023-02-11T05:39:48;-10.40;99.90
19389;DHT22;9830;41.876;23.474;2023-02-11T05:42:13;-10.30;99.90
19389;DHT22;9830;41.876;23.474;2023-02-11T05:44:39;-10.10;99.90
19389;DHT22;9830;41.876;23.474;2023-02-11T05:47:06;-9.50;99.90
19389;DHT22;9830;41.876;23.474;2023-02-11T05:49:33;-8.80;99.90
19389;DHT22;9830;41.876;23.474;2023-02-11T05:51:59;-7.80;99.90
19389;DHT22;9830;41.876;23.474;2023-02-11T05:54:25;-7.20;99.90
19389;DHT22;9830;41.876;23.474;2023-02-11T05:56:51;-5.70;99.90
19389;DHT22;9830;41.876;23.474;2023-02-11T05:59:16;-4.50;91.60
19389;DHT22;9830;41.876;23.474;2023-02-11T06:01:43;-4.00;84.20
19389;DHT22;9830;41.876;23.474;2023-02-11T06:04:08;-3.70;79.50
19389;DHT22;9830;41.876;23.474;2023-02-11T06:06:34;-3.70;78.70
19389;DHT22;9830;41.876;23.474;2023-02-11T06:09:00;-3.20;80.50
19389;DHT22;9830;41.876;23.474;2023-02-11T06:11:25;-2.80;71.10
19389;DHT22;9830;41.876;23.474;2023-02-11T06:13:51;-3.20;75.20
19389;DHT22;9830;41.876;23.474;2023-02-11T06:16:17;-3.60;75.80
19389;DHT22;9830;41.876;23.474;2023-02-11T06:18:42;-3.70;77.20
19389;DHT22;9830;41.876;23.474;2023-02-11T06:21:09;-1.70;72.20
19389;DHT22;9830;41.876;23.474;2023-02-11T06:23:36;-0.40;61.70
19389;DHT22;9830;41.876;23.474;2023-02-11T06:26:06;-0.10;58.60
19389;DHT22;9830;41.876;23.474;2023-02-11T06:28:32;0.20;57.80
19389;DHT22;9830;41.876;23.474;2023-02-11T06:31:05;0.10;57.30
19389;DHT22;9830;41.876;23.474;2023-02-11T06:33:31;0.60;57.10
19389;DHT22;9830;41.876;23.474;2023-02-11T06:35:57;0.70;56.90
19389;DHT22;9830;41.876;23.474;2023-02-11T06:38:22;1.40;54.90
19389;DHT22;9830;41.876;23.474;2023-02-11T06:40:48;1.00;55.30
19389;DHT22;9830;41.876;23.474;2023-02-11T06:43:14;0.70;55.00
19389;DHT22;9830;41.876;23.474;2023-02-11T06:45:40;0.80;57.70
19389;DHT22;9830;41.876;23.474;2023-02-11T06:48:06;0.60;57.80
19389;DHT22;9830;41.876;23.474;2023-02-11T06:50:31;0.50;56.40
19389;DHT22;9830;41.876;23.474;2023-02-11T06:53:00;0.20;57.40
19389;DHT22;9830;41.876;23.474;2023-02-11T06:55:26;-0.10;58.20
19389;DHT22;9830;41.876;23.474;2023-02-11T06:57:52;0.10;57.50
19389;DHT22;9830;41.876;23.474;2023-02-11T07:00:19;0.80;55.80
19389;DHT22;9830;41.876;23.474;2023-02-11T07:02:44;2.00;53.40
19389;DHT22;9830;41.876;23.474;2023-02-11T07:05:10;3.40;49.20
19389;DHT22;9830;41.876;23.474;2023-02-11T07:07:36;5.40;45.90
19389;DHT22;9830;41.876;23.474;2023-02-11T07:10:02;6.00;45.00
19389;DHT22;9830;41.876;23.474;2023-02-11T07:12:29;6.20;44.00
19389;DHT22;9830;41.876;23.474;2023-02-11T07:14:55;6.30;44.00
19389;DHT22;9830;41.876;23.474;2023-02-11T07:17:21;6.60;42.70
19389;DHT22;9830;41.876;23.474;2023-02-11T07:19:47;5.40;43.80
19389;DHT22;9830;41.876;23.474;2023-02-11T07:22:12;6.40;44.00
19389;DHT22;9830;41.876;23.474;2023-02-11T07:24:38;5.90;43.20
19389;DHT22;9830;41.876;23.474;2023-02-11T07:27:04;6.30;43.90
19389;DHT22;9830;41.876;23.474;2023-02-11T07:29:30;6.10;42.90
19389;DHT22;9830;41.876;23.474;2023-02-11T07:31:56;5.80;43.90
19389;DHT22;9830;41.876;23.474;2023-02-11T07:34:21;7.60;41.70
19389;DHT22;9830;41.876;23.474;2023-02-11T07:36:47;7.60;41.60
19389;DHT22;9830;41.876;23.474;2023-02-11T07:39:13;7.90;41.10
19389;DHT22;9830;41.876;23.474;2023-02-11T07:41:39;8.00;40.40
19389;DHT22;9830;41.876;23.474;2023-02-11T07:44:05;7.80;40.10
19389;DHT22;9830;41.876;23.474;2023-02-11T07:46:31;8.10;39.50
19389;DHT22;9830;41.876;23.474;2023-02-11T07:48:59;8.20;39.90
19389;DHT22;9830;41.876;23.474;2023-02-11T07:51:29;7.80;39.20
19389;DHT22;9830;41.876;23.474;2023-02-11T07:53:57;7.90;39.90
19389;DHT22;9830;41.876;23.474;2023-02-11T07:56:23;7.90;39.40
19389;DHT22;9830;41.876;23.474;2023-02-11T07:58:49;7.90;39.60
19389;DHT22;9830;41.876;23.474;2023-02-11T08:01:18;8.00;40.20
19389;DHT22;9830;41.876;23.474;2023-02-11T08:03:44;8.20;38.60
19389;DHT22;9830;41.876;23.474;2023-02-11T08:06:15;8.50;39.10
19389;DHT22;9830;41.876;23.474;2023-02-11T08:08:41;7.40;40.90
19389;DHT22;9830;41.876;23.474;2023-02-11T08:11:09;7.40;40.70
19389;DHT22;9830;41.876;23.474;2023-02-11T08:13:36;6.90;40.30
19389;DHT22;9830;41.876;23.474;2023-02-11T08:16:04;6.20;42.30
19389;DHT22;9830;41.876;23.474;2023-02-11T08:18:31;5.80;43.20
19389;DHT22;9830;41.876;23.474;2023-02-11T08:21:03;6.50;42.40
19389;DHT22;9830;41.876;23.474;2023-02-11T08:23:29;7.60;40.10
19389;DHT22;9830;41.876;23.474;2023-02-11T08:25:55;7.50;39.90
19389;DHT22;9830;41.876;23.474;2023-02-11T08:28:20;7.80;39.60
19389;DHT22;9830;41.876;23.474;2023-02-11T08:30:46;8.40;39.00
19389;DHT22;9830;41.876;23.474;2023-02-11T08:33:11;9.10;39.80
19389;DHT22;9830;41.876;23.474;2023-02-11T08:35:37;9.40;37.40
19389;DHT22;9830;41.876;23.474;2023-02-11T08:38:04;10.30;35.00
19389;DHT22;9830;41.876;23.474;2023-02-11T08:40:30;9.30;38.00
19389;DHT22;9830;41.876;23.474;2023-02-11T08:42:55;11.50;34.60
19389;DHT22;9830;41.876;23.474;2023-02-11T08:45:21;11.30;34.00
19389;DHT22;9830;41.876;23.474;2023-02-11T08:47:47;10.30;33.00
19389;DHT22;9830;41.876;23.474;2023-02-11T08:50:12;9.10;35.50
19389;DHT22;9830;41.876;23.474;2023-02-11T08:52:38;8.20;37.90
19389;DHT22;9830;41.876;23.474;2023-02-11T08:55:04;8.70;37.60
19389;DHT22;9830;41.876;23.474;2023-02-11T08:57:30;11.20;36.10
19389;DHT22;9830;41.876;23.474;2023-02-11T08:59:55;12.80;33.40
19389;DHT22;9830;41.876;23.474;2023-02-11T09:02:21;12.90;32.40
19389;DHT22;9830;41.876;23.474;2023-02-11T09:04:47;11.90;32.60
19389;DHT22;9830;41.876;23.474;2023-02-11T09:07:12;11.80;32.50
19389;DHT22;9830;41.876;23.474;2023-02-11T09:09:38;12.30;32.60
19389;DHT22;9830;41.876;23.474;2023-02-11T09:12:04;10.70;34.20
19389;DHT22;9830;41.876;23.474;2023-02-11T09:14:30;10.60;35.80
19389;DHT22;9830;41.876;23.474;2023-02-11T09:16:55;11.80;33.40
19389;DHT22;9830;41.876;23.474;2023-02-11T09:19:22;11.00;34.30
19389;DHT22;9830;41.876;23.474;2023-02-11T09:21:47;11.50;35.10
19389;DHT22;9830;41.876;23.474;2023-02-11T09:24:14;12.90;32.20
19389;DHT22;9830;41.876;23.474;2023-02-11T09:26:40;14.50;30.00
19389;DHT22;9830;41.876;23.474;2023-02-11T09:29:06;13.70;31.20
19389;DHT22;9830;41.876;23.474;2023-02-11T09:31:33;11.60;32.60
19389;DHT22;9830;41.876;23.474;2023-02-11T09:34:01;10.70;34.40
19389;DHT22;9830;41.876;23.474;2023-02-11T09:36:31;12.00;33.20
19389;DHT22;9830;41.876;23.474;2023-02-11T09:39:00;11.80;31.40
19389;DHT22;9830;41.876;23.474;2023-02-11T09:44:07;12.80;30.00
19389;DHT22;9830;41.876;23.474;2023-02-11T09:46:39;13.10;29.00
19389;DHT22;9830;41.876;23.474;2023-02-11T09:49:09;12.60;27.40
19389;DHT22;9830;41.876;23.474;2023-02-11T09:51:57;14.20;25.80
19389;DHT22;9830;41.876;23.474;2023-02-11T09:54:39;12.80;27.00
19389;DHT22;9830;41.876;23.474;2023-02-11T09:57:08;13.40;25.60
19389;DHT22;9830;41.876;23.474;2023-02-11T09:59:34;13.10;24.90
19389;DHT22;9830;41.876;23.474;2023-02-11T10:02:08;13.00;25.30
19389;DHT22;9830;41.876;23.474;2023-02-11T10:04:43;14.70;24.60
19389;DHT22;9830;41.876;23.474;2023-02-11T10:07:37;16.00;21.80
19389;DHT22;9830;41.876;23.474;2023-02-11T10:24:16;15.00;23.10
19389;DHT22;9830;41.876;23.474;2023-02-11T10:26:43;14.80;23.00
19389;DHT22;9830;41.876;23.474;2023-02-11T10:29:37;14.00;24.10
19389;DHT22;9830;41.876;23.474;2023-02-11T10:32:58;13.60;23.90
19389;DHT22;9830;41.876;23.474;2023-02-11T10:35:02;13.50;23.80
19389;DHT22;9830;41.876;23.474;2023-02-11T10:37:29;14.10;23.60
19389;DHT22;9830;41.876;23.474;2023-02-11T10:39:55;14.00;24.80
19389;DHT22;9830;41.876;23.474;2023-02-11T10:42:20;13.60;24.60
19389;DHT22;9830;41.876;23.474;2023-02-11T10:44:57;13.90;25.10
19389;DHT22;9830;41.876;23.474;2023-02-11T10:47:27;15.10;23.50
19389;DHT22;9830;41.876;23.474;2023-02-11T10:49:55;14.10;24.80
19389;DHT22;9830;41.876;23.474;2023-02-11T10:52:28;13.90;25.70
19389;DHT22;9830;41.876;23.474;2023-02-11T10:55:18;14.50;25.80
19389;DHT22;9830;41.876;23.474;2023-02-11T10:57:58;14.40;25.60
19389;DHT22;9830;41.876;23.474;2023-02-11T11:00:35;14.20;27.60
19389;DHT22;9830;41.876;23.474;2023-02-11T11:03:03;13.20;28.90
19389;DHT22;9830;41.876;23.474;2023-02-11T11:05:46;12.30;30.40
19389;DHT22;9830;41.876;23.474;2023-02-11T11:08:12;11.80;33.40
19389;DHT22;9830;41.876;23.474;2023-02-11T11:10:44;11.30;33.50
19389;DHT22;9830;41.876;23.474;2023-02-11T11:18:38;8.60;39.90
19389;DHT22;9830;41.876;23.474;2023-02-11T11:21:05;8.30;41.00
19389;DHT22;9830;41.876;23.474;2023-02-11T11:23:34;7.90;41.80
19389;DHT22;9830;41.876;23.474;2023-02-11T11:28:28;7.20;42.20
19389;DHT22;9830;41.876;23.474;2023-02-11T11:30:56;7.20;44.00
19389;DHT22;9830;41.876;23.474;2023-02-11T11:33:34;7.10;43.40
19389;DHT22;9830;41.876;23.474;2023-02-11T11:36:12;7.10;44.40
19389;DHT22;9830;41.876;23.474;2023-02-11T11:38:51;7.30;43.80
19389;DHT22;9830;41.876;23.474;2023-02-11T11:41:25;7.50;43.10
19389;DHT22;9830;41.876;23.474;2023-02-11T11:46:43;7.50;43.50
19389;DHT22;9830;41.876;23.474;2023-02-11T11:49:28;7.40;44.40
19389;DHT22;9830;41.876;23.474;2023-02-11T11:54:35;7.30;44.80
19389;DHT22;9830;41.876;23.474;2023-02-11T11:57:19;7.40;44.10
19389;DHT22;9830;41.876;23.474;2023-02-11T11:59:46;7.40;43.80
19389;DHT22;9830;41.876;23.474;2023-02-11T12:02:59;7.30;44.30
19389;DHT22;9830;41.876;23.474;2023-02-11T12:05:51;7.00;43.00
19389;DHT22;9830;41.876;23.474;2023-02-11T12:11:25;7.10;43.20
19389;DHT22;9830;41.876;23.474;2023-02-11T12:17:16;6.70;42.60
19389;DHT22;9830;41.876;23.474;2023-02-11T12:25:33;6.40;44.00
19389;DHT22;9830;41.876;23.474;2023-02-11T12:34:25;6.10;41.20
19389;DHT22;9830;41.876;23.474;2023-02-11T12:37:27;6.00;41.80
19389;DHT22;9830;41.876;23.474;2023-02-11T12:59:12;5.30;42.60
19389;DHT22;9830;41.876;23.474;2023-02-11T13:01:41;5.30;42.90
19389;DHT22;9830;41.876;23.474;2023-02-11T13:04:37;5.10;42.80
19389;DHT22;9830;41.876;23.474;2023-02-11T13:07:12;5.00;43.60
19389;DHT22;9830;41.876;23.474;2023-02-11T13:09:43;5.20;44.90
19389;DHT22;9830;41.876;23.474;2023-02-11T13:12:12;5.10;44.40
19389;DHT22;9830;41.876;23.474;2023-02-11T13:15:02;5.10;45.00
19389;DHT22;9830;41.876;23.474;2023-02-11T13:17:37;5.20;45.10
19389;DHT22;9830;41.876;23.474;2023-02-11T13:20:17;5.20;45.10
19389;DHT22;9830;41.876;23.474;2023-02-11T13:22:58;5.10;45.00
19389;DHT22;9830;41.876;23.474;2023-02-11T13:25:37;5.10;45.90
19389;DHT22;9830;41.876;23.474;2023-02-11T13:28:33;5.10;45.80
19389;DHT22;9830;41.876;23.474;2023-02-11T13:31:01;5.00;45.00
19389;DHT22;9830;41.876;23.474;2023-02-11T13:33:41;5.00;45.00
19389;DHT22;9830;41.876;23.474;2023-02-11T13:38:34;4.90;46.00
19389;DHT22;9830;41.876;23.474;2023-02-11T13:41:22;4.70;46.80
19389;DHT22;9830;41.876;23.474;2023-02-11T13:43:59;4.80;46.20
19389;DHT22;9830;41.876;23.474;2023-02-11T13:46:28;4.70;45.80
19389;DHT22;9830;41.876;23.474;2023-02-11T13:48:55;4.80;45.70
19389;DHT22;9830;41.876;23.474;2023-02-11T13:51:38;4.70;45.80
19389;DHT22;9830;41.876;23.474;2023-02-11T13:54:05;4.70;45.80
19389;DHT22;9830;41.876;23.474;2023-02-11T13:56:35;4.60;45.60
19389;DHT22;9830;41.876;23.474;2023-02-11T14:04:32;4.80;45.20
19389;DHT22;9830;41.876;23.474;2023-02-11T14:21:18;4.80;47.00
19389;DHT22;9830;41.876;23.474;2023-02-11T14:23:46;4.70;46.50
19389;DHT22;9830;41.876;23.474;2023-02-11T14:29:18;4.90;46.60
19389;DHT22;9830;41.876;23.474;2023-02-11T14:37:41;4.80;48.20
19389;DHT22;9830;41.876;23.474;2023-02-11T14:43:19;4.40;48.40
19389;DHT22;9830;41.876;23.474;2023-02-11T14:45:49;4.30;48.80
19389;DHT22;9830;41.876;23.474;2023-02-11T14:48:19;4.20;49.60
19389;DHT22;9830;41.876;23.474;2023-02-11T14:50:51;4.10;49.50
19389;DHT22;9830;41.876;23.474;2023-02-11T14:53:20;4.00;49.70
19389;DHT22;9830;41.876;23.474;2023-02-11T14:55:48;4.00;50.10
19389;DHT22;9830;41.876;23.474;2023-02-11T14:58:26;3.80;50.40
19389;DHT22;9830;41.876;23.474;2023-02-11T15:00:57;3.60;51.20
19389;DHT22;9830;41.876;23.474;2023-02-11T15:03:35;3.50;51.50
19389;DHT22;9830;41.876;23.474;2023-02-11T15:06:22;3.30;52.70
19389;DHT22;9830;41.876;23.474;2023-02-11T15:09:01;3.20;52.40
19389;DHT22;9830;41.876;23.474;2023-02-11T15:11:31;2.90;52.90
19389;DHT22;9830;41.876;23.474;2023-02-11T15:14:06;2.60;53.90
19389;DHT22;9830;41.876;23.474;2023-02-11T15:16:32;2.30;54.50
19389;DHT22;9830;41.876;23.474;2023-02-11T15:19:03;2.10;54.90
19389;DHT22;9830;41.876;23.474;2023-02-11T15:21:32;1.90;55.30
19389;DHT22;9830;41.876;23.474;2023-02-11T15:24:02;1.90;55.70
19389;DHT22;9830;41.876;23.474;2023-02-11T15:26:29;1.70;56.40
19389;DHT22;9830;41.876;23.474;2023-02-11T15:28:55;1.60;56.50
19389;DHT22;9830;41.876;23.474;2023-02-11T15:31:22;1.60;56.10
19389;DHT22;9830;41.876;23.474;2023-02-11T15:33:49;1.50;56.10
19389;DHT22;9830;41.876;23.474;2023-02-11T15:36:16;1.50;56.60
19389;DHT22;9830;41.876;23.474;2023-02-11T15:38:43;1.50;56.40
19389;DHT22;9830;41.876;23.474;2023-02-11T15:41:33;1.50;55.90
19389;DHT22;9830;41.876;23.474;2023-02-11T15:43:59;1.50;56.00
19389;DHT22;9830;41.876;23.474;2023-02-11T15:46:35;1.40;56.10
19389;DHT22;9830;41.876;23.474;2023-02-11T15:49:02;1.30;56.00
19389;DHT22;9830;41.876;23.474;2023-02-11T15:51:31;1.20;57.40
19389;DHT22;9830;41.876;23.474;2023-02-11T15:54:01;1.10;56.80
19389;DHT22;9830;41.876;23.474;2023-02-11T15:56:39;1.10;57.10
19389;DHT22;9830;41.876;23.474;2023-02-11T15:59:38;1.00;58.20
19389;DHT22;9830;41.876;23.474;2023-02-11T16:02:27;0.90;58.50
19389;DHT22;9830;41.876;23.474;2023-02-11T16:04:56;0.80;59.20
19389;DHT22;9830;41.876;23.474;2023-02-11T16:12:40;0.70;59.70
19389;DHT22;9830;41.876;23.474;2023-02-11T16:18:11;0.50;59.80
19389;DHT22;9830;41.876;23.474;2023-02-11T16:20:37;0.40;59.40
19389;DHT22;9830;41.876;23.474;2023-02-11T16:23:05;0.30;59.50
19389;DHT22;9830;41.876;23.474;2023-02-11T16:25:34;0.30;59.30
19389;DHT22;9830;41.876;23.474;2023-02-11T16:28:00;0.30;59.50
19389;DHT22;9830;41.876;23.474;2023-02-11T16:30:34;0.30;59.80
19389;DHT22;9830;41.876;23.474;2023-02-11T16:33:02;0.20;60.20
19389;DHT22;9830;41.876;23.474;2023-02-11T16:35:29;0.20;60.00
19389;DHT22;9830;41.876;23.474;2023-02-11T16:37:54;0.10;61.60
19389;DHT22;9830;41.876;23.474;2023-02-11T16:40:20;0.00;61.50
19389;DHT22;9830;41.876;23.474;2023-02-11T16:42:48;-0.10;61.60
19389;DHT22;9830;41.876;23.474;2023-02-11T16:45:14;-0.10;62.00
19389;DHT22;9830;41.876;23.474;2023-02-11T16:47:41;-0.20;62.60
19389;DHT22;9830;41.876;23.474;2023-02-11T16:50:10;-0.20;63.10
19389;DHT22;9830;41.876;23.474;2023-02-11T16:52:37;-0.30;65.40
19389;DHT22;9830;41.876;23.474;2023-02-11T16:55:03;-0.50;66.70
19389;DHT22;9830;41.876;23.474;2023-02-11T16:57:30;-0.70;67.80
19389;DHT22;9830;41.876;23.474;2023-02-11T16:59:56;-0.80;68.70
19389;DHT22;9830;41.876;23.474;2023-02-11T17:02:29;-1.00;71.00
19389;DHT22;9830;41.876;23.474;2023-02-11T17:04:58;-1.10;72.80
19389;DHT22;9830;41.876;23.474;2023-02-11T17:07:25;-1.10;73.00
19389;DHT22;9830;41.876;23.474;2023-02-11T17:09:51;-1.20;73.00
19389;DHT22;9830;41.876;23.474;2023-02-11T17:12:17;-1.30;74.20
19389;DHT22;9830;41.876;23.474;2023-02-11T17:14:43;-1.30;75.30
19389;DHT22;9830;41.876;23.474;2023-02-11T17:17:10;-1.40;77.10
19389;DHT22;9830;41.876;23.474;2023-02-11T17:19:36;-1.40;74.50
19389;DHT22;9830;41.876;23.474;2023-02-11T17:22:03;-1.40;74.50
19389;DHT22;9830;41.876;23.474;2023-02-11T17:24:29;-1.30;75.30
19389;DHT22;9830;41.876;23.474;2023-02-11T17:26:55;-1.40;77.10
19389;DHT22;9830;41.876;23.474;2023-02-11T17:29:22;-1.50;78.90
19389;DHT22;9830;41.876;23.474;2023-02-11T17:31:49;-1.70;80.60
19389;DHT22;9830;41.876;23.474;2023-02-11T17:34:16;-1.80;80.60
19389;DHT22;9830;41.876;23.474;2023-02-11T17:36:42;-1.90;85.70
19389;DHT22;9830;41.876;23.474;2023-02-11T17:39:08;-2.00;88.10
19389;DHT22;9830;41.876;23.474;2023-02-11T17:41:38;-2.10;89.60
19389;DHT22;9830;41.876;23.474;2023-02-11T17:44:05;-2.20;87.60
19389;DHT22;9830;41.876;23.474;2023-02-11T17:46:33;-2.30;89.50
19389;DHT22;9830;41.876;23.474;2023-02-11T17:48:59;-2.40;91.80
19389;DHT22;9830;41.876;23.474;2023-02-11T17:51:32;-2.50;92.90
19389;DHT22;9830;41.876;23.474;2023-02-11T17:53:59;-2.50;93.50
19389;DHT22;9830;41.876;23.474;2023-02-11T17:56:26;-2.50;93.70
19389;DHT22;9830;41.876;23.474;2023-02-11T17:58:52;-2.60;93.70
19389;DHT22;9830;41.876;23.474;2023-02-11T18:01:18;-2.70;92.80
19389;DHT22;9830;41.876;23.474;2023-02-11T18:03:44;-2.70;93.40
19389;DHT22;9830;41.876;23.474;2023-02-11T18:06:10;-2.80;93.70
19389;DHT22;9830;41.876;23.474;2023-02-11T18:08:36;-2.80;94.50
19389;DHT22;9830;41.876;23.474;2023-02-11T18:11:02;-2.90;94.00
19389;DHT22;9830;41.876;23.474;2023-02-11T18:13:28;-2.90;96.40